Terminal Aerodrome Forecast
Issued by NWS

Home | Current Version | Previous Version | Text Only | Print | Product List | Glossary On
Versions: 1 2 3 4 5 6 7 8 9 10 11 12
496
FTUS45 KVEF 121120
TAFDAG
TAF
KDAG 121120Z 1212/1312 27007KT P6SM FEW250
     FM121700 VRB05KT P6SM SKC
     FM122000 06006KT P6SM FEW250
     FM130300 VRB04KT P6SM SCT250
     FM130700 28007KT P6SM SCT250=

USA.gov is the U.S. government's official web portal to all federal, state and local government web resources and services.